createdAt,value
2018-03-26T18:49:54.029Z,28.70
2018-03-26T18:52:25.045Z,26.73
2018-03-26T18:54:56.106Z,28.60
2018-03-26T18:57:27.071Z,30.63
2018-03-26T18:59:58.035Z,31.40
2018-03-26T19:02:28.979Z,30.43
2018-03-26T19:05:00.079Z,32.20
2018-03-26T19:07:31.016Z,29.07
2018-03-26T19:10:02.041Z,29.37
2018-03-26T19:12:33.094Z,30.23
2018-03-26T19:15:04.066Z,29.10
2018-03-26T19:17:35.103Z,30.70
2018-03-26T19:20:06.178Z,28.90
2018-03-26T19:22:37.185Z,27.67
2018-03-26T19:25:08.184Z,29.27
2018-03-26T19:27:39.182Z,29.93
2018-03-26T19:30:10.235Z,28.20
2018-03-26T19:32:41.225Z,28.40
2018-03-26T19:35:12.298Z,31.80
2018-03-26T19:37:43.358Z,32.90
2018-03-26T19:40:14.421Z,31.07
2018-03-26T19:42:45.409Z,32.07
2018-03-26T19:45:16.404Z,34.27
2018-03-26T19:47:47.423Z,32.40
2018-03-26T19:50:18.470Z,32.93
2018-03-26T19:52:49.455Z,34.07
2018-03-26T19:55:20.447Z,36.43
2018-03-26T19:57:51.356Z,32.90
2018-03-26T20:00:22.288Z,31.77
2018-03-26T20:02:53.260Z,36.07
2018-03-26T20:05:24.219Z,31.03
2018-03-26T20:07:55.217Z,33.43
2018-03-26T20:10:26.215Z,32.77
2018-03-26T20:12:57.203Z,32.93
2018-03-26T20:15:28.195Z,32.93
2018-03-26T20:17:59.159Z,35.00
2018-03-26T20:20:30.111Z,33.43
2018-03-26T20:23:01.133Z,33.07
2018-03-26T20:25:32.123Z,32.63
2018-03-26T20:28:03.160Z,32.80
2018-03-26T20:30:34.171Z,33.13
2018-03-26T20:33:05.219Z,36.83
2018-03-26T20:35:36.237Z,38.03
2018-03-26T20:38:07.264Z,32.83
2018-03-26T20:40:38.316Z,35.53
2018-03-26T20:43:09.339Z,34.13
2018-03-26T20:45:40.336Z,36.03
2018-03-26T20:48:11.320Z,48.33
2018-03-26T20:50:42.361Z,33.07
2018-03-26T20:53:13.353Z,36.83
2018-03-26T20:55:44.437Z,34.50
2018-03-26T20:58:15.443Z,31.97
2018-03-26T21:00:46.445Z,34.57
2018-03-26T21:03:17.513Z,35.97
2018-03-26T21:05:48.545Z,35.43
2018-03-26T21:08:19.598Z,36.40
2018-03-26T21:10:50.658Z,36.43
2018-03-26T21:13:21.722Z,37.40
2018-03-26T21:15:52.757Z,35.43
2018-03-26T21:18:23.825Z,35.23
2018-03-26T21:20:54.881Z,37.17
2018-03-26T21:23:25.942Z,39.33
2018-03-26T21:25:57.025Z,39.60
2018-03-26T21:28:28.066Z,38.80
2018-03-26T21:30:59.153Z,38.23
2018-03-26T21:33:30.191Z,37.07
2018-03-26T21:36:01.264Z,38.87
2018-03-26T21:38:32.330Z,41.60
2018-03-26T21:41:03.398Z,38.47
2018-03-26T21:43:34.726Z,39.40
2018-03-26T21:46:05.833Z,40.20
2018-03-26T21:48:36.891Z,42.97
2018-03-26T21:51:07.953Z,46.40
2018-03-26T21:53:38.989Z,43.23
2018-03-26T21:56:10.036Z,41.67
2018-03-26T21:58:41.096Z,46.17
2018-03-26T22:01:12.164Z,47.30
2018-03-26T22:03:43.204Z,42.03
2018-03-26T22:06:14.245Z,47.17
2018-03-26T22:08:45.273Z,47.00
2018-03-26T22:11:16.349Z,49.60
2018-03-26T22:13:47.397Z,45.77
2018-03-26T22:16:18.462Z,48.73
2018-03-26T22:18:49.488Z,45.77
2018-03-26T22:21:20.545Z,46.40
2018-03-26T22:23:51.573Z,46.60
2018-03-26T22:26:22.625Z,46.10
2018-03-26T22:28:53.700Z,47.37
2018-03-26T22:31:24.737Z,46.17
2018-03-26T22:33:55.814Z,44.00
2018-03-26T22:36:26.869Z,47.27
2018-03-26T22:38:57.934Z,49.10
2018-03-26T22:41:28.973Z,49.40
2018-03-26T22:44:00.037Z,46.10
2018-03-26T22:46:31.082Z,45.00
2018-03-26T22:49:02.142Z,50.50
2018-03-26T22:51:33.170Z,46.43
2018-03-26T22:54:04.240Z,46.53
2018-03-26T22:56:35.289Z,48.67
2018-03-26T22:59:06.358Z,49.87
2018-03-26T23:01:37.383Z,49.57
2018-03-26T23:04:08.469Z,47.77
2018-03-26T23:06:39.493Z,52.00
2018-03-26T23:09:10.545Z,49.43
2018-03-26T23:11:41.598Z,51.33
2018-03-26T23:14:12.642Z,49.30
2018-03-26T23:16:43.677Z,51.80
2018-03-26T23:19:14.703Z,51.70
2018-03-26T23:21:45.770Z,48.90
2018-03-26T23:24:16.797Z,48.93
2018-03-26T23:26:47.849Z,50.47
2018-03-26T23:29:18.886Z,52.47
2018-03-26T23:31:49.961Z,50.77
2018-03-26T23:34:20.981Z,50.07
2018-03-26T23:36:52.034Z,50.33
2018-03-26T23:39:23.062Z,52.70
2018-03-26T23:41:54.113Z,54.07
2018-03-26T23:44:25.161Z,52.57
2018-03-26T23:46:56.214Z,57.23
2018-03-26T23:49:27.249Z,51.83
2018-03-26T23:51:58.311Z,65.50
2018-03-26T23:54:29.391Z,57.37
2018-03-26T23:57:00.395Z,60.10
2018-03-26T23:59:31.462Z,57.10
